Time;durP1;ratioP1;P1;durP2;ratioP2;P2;SDS_P1;SDS_P2;PMS_P1;PMS_P2;Temp;Humidity;BMP_temperature;BMP_pressure;BME280_temperature;BME280_humidity;BME280_pressure;Samples;Min_cycle;Max_cycle;Signal;HPM_P1;HPM_P2
2023/03/12 00:02:13;;;;;;;5.70;1.43;;;;;;;1.19;88.60;100481.06;5034848;28;20973;-66
2023/03/12 00:04:39;;;;;;;5.17;1.20;;;;;;;1.17;88.84;100474.38;5034975;28;20442;-66
2023/03/12 00:07:08;;;;;;;4.90;1.37;;;;;;;1.15;87.99;100471.13;5034970;28;20534;-67
2023/03/12 00:09:36;;;;;;;6.50;1.23;;;;;;;1.15;89.30;100477.28;5035538;28;20450;-67
2023/03/12 00:12:02;;;;;;;8.60;1.27;;;;;;;1.18;88.54;100475.97;5034805;28;20855;-67
2023/03/12 00:14:29;;;;;;;5.40;1.10;;;;;;;1.18;87.94;100474.13;5034829;28;20443;-66
2023/03/12 00:16:56;;;;;;;5.50;1.30;;;;;;;1.23;87.03;100466.19;5034847;28;20463;-67
2023/03/12 00:19:22;;;;;;;5.53;1.20;;;;;;;1.23;87.06;100476.88;5034755;28;20538;-64
2023/03/12 00:21:49;;;;;;;5.63;1.40;;;;;;;1.21;87.07;100473.66;5034304;28;20887;-66
2023/03/12 00:24:17;;;;;;;5.27;1.33;;;;;;;1.21;87.06;100473.66;5034386;28;20482;-66
2023/03/12 00:26:44;;;;;;;5.50;1.30;;;;;;;1.29;85.79;100475.13;5034569;28;20447;-67
2023/03/12 00:29:10;;;;;;;5.10;1.10;;;;;;;1.22;87.05;100472.59;5034493;28;20443;-65
2023/03/12 00:31:37;;;;;;;5.87;1.47;;;;;;;1.24;86.46;100477.69;5034462;28;20578;-64
2023/03/12 00:34:03;;;;;;;8.47;1.60;;;;;;;1.27;86.55;100474.53;5034453;28;20443;-66
2023/03/12 00:36:32;;;;;;;7.23;1.23;;;;;;;1.24;86.65;100478.50;5034618;28;20439;-66
2023/03/12 00:39:00;;;;;;;8.60;1.43;;;;;;;1.24;86.78;100491.03;5034306;28;20530;-65
2023/03/12 00:41:29;;;;;;;4.90;1.20;;;;;;;1.34;85.76;100493.88;5034131;28;20447;-67
2023/03/12 00:43:56;;;;;;;5.80;1.47;;;;;;;1.39;85.70;100490.47;5034823;28;20871;-66
2023/03/12 00:46:23;;;;;;;6.13;1.30;;;;;;;1.48;84.78;100494.34;5034520;28;20438;-65
2023/03/12 00:48:50;;;;;;;5.33;1.13;;;;;;;1.48;84.91;100499.69;5033972;28;21015;-66
2023/03/12 00:51:16;;;;;;;6.27;1.40;;;;;;;1.51;84.84;100501.88;5034046;28;20450;-65
2023/03/12 00:53:43;;;;;;;9.50;1.00;;;;;;;1.56;85.26;100499.28;5033929;28;20574;-66
2023/03/12 00:56:10;;;;;;;5.27;1.13;;;;;;;1.67;83.41;100506.38;5045175;22;20498;-81
2023/03/12 00:58:38;;;;;;;5.50;0.93;;;;;;;1.61;84.70;100499.38;5036407;28;20945;-81
2023/03/12 01:01:05;;;;;;;10.43;1.73;;;;;;;1.69;84.82;100509.63;5036717;28;20903;-81
2023/03/12 01:03:32;;;;;;;8.47;1.63;;;;;;;1.79;82.87;100500.97;5061090;22;20501;-67
2023/03/12 01:05:58;;;;;;;5.30;1.10;;;;;;;1.81;82.64;100511.38;5033988;28;20463;-69
2023/03/12 01:08:25;;;;;;;5.50;1.40;;;;;;;1.83;82.19;100512.78;5033791;28;20443;-67
2023/03/12 01:10:52;;;;;;;5.53;1.40;;;;;;;1.89;81.31;100506.44;5033837;28;20446;-68
2023/03/12 01:13:19;;;;;;;7.97;1.30;;;;;;;1.88;81.87;100501.34;5033938;28;20483;-67
2023/03/12 01:15:47;;;;;;;6.10;0.97;;;;;;;1.83;82.62;100506.63;5033645;28;20996;-67
2023/03/12 01:18:13;;;;;;;6.20;1.23;;;;;;;1.83;82.26;100511.97;5034015;28;20446;-68
2023/03/12 01:20:41;;;;;;;6.70;1.40;;;;;;;1.76;83.69;100507.59;5033558;28;20447;-67
2023/03/12 01:23:08;;;;;;;5.37;0.97;;;;;;;1.74;82.27;100509.72;5033610;28;20486;-68
2023/03/12 01:25:35;;;;;;;4.70;1.20;;;;;;;1.71;82.64;100509.38;5033780;28;20559;-67
2023/03/12 01:28:01;;;;;;;5.87;1.40;;;;;;;1.66;83.22;100509.31;5033447;28;20475;-67
2023/03/12 01:30:28;;;;;;;12.80;1.70;;;;;;;1.59;84.55;100514.00;5033640;28;20442;-68
2023/03/12 01:32:56;;;;;;;5.00;1.30;;;;;;;1.58;83.95;100517.72;5033382;28;20582;-67
2023/03/12 01:35:23;;;;;;;5.63;1.43;;;;;;;1.63;83.73;100515.13;5033517;28;20482;-66
2023/03/12 01:37:50;;;;;;;5.70;1.23;;;;;;;1.68;83.41;100520.53;5033899;28;20444;-68
2023/03/12 01:40:18;;;;;;;5.17;1.17;;;;;;;1.74;83.48;100519.59;5033639;28;20477;-68
2023/03/12 01:42:52;;;;;;;8.70;1.20;;;;;;;1.76;83.52;100523.59;5033559;28;20573;-69
2023/03/12 01:45:52;;;;;;;6.57;1.90;;;;;;;1.82;83.17;100526.38;5033575;28;20561;-67
2023/03/12 01:48:20;;;;;;;6.70;1.33;;;;;;;1.85;82.77;100521.34;5030018;28;20451;-68
2023/03/12 01:50:47;;;;;;;5.93;1.60;;;;;;;1.89;83.11;100524.34;5033533;28;20818;-67
2023/03/12 01:53:13;;;;;;;4.50;0.90;;;;;;;1.89;83.14;100527.00;5033278;28;20491;-68
2023/03/12 01:55:40;;;;;;;6.10;1.47;;;;;;;1.91;82.54;100528.38;5033326;28;20466;-68
2023/03/12 01:58:08;;;;;;;5.03;1.10;;;;;;;1.95;82.45;100529.53;5033169;28;20447;-67
2023/03/12 02:00:35;;;;;;;6.63;1.20;;;;;;;1.89;83.65;100527.00;5033511;28;20542;-67
2023/03/12 02:03:07;;;;;;;5.00;1.03;;;;;;;1.74;84.32;100528.41;5033101;28;20949;-67
2023/03/12 02:05:42;;;;;;;13.77;1.40;;;;;;;1.80;83.64;100541.81;5033362;28;20471;-67
2023/03/12 02:08:09;;;;;;;5.07;0.83;;;;;;;1.72;83.59;100541.16;5033730;28;20509;-67
2023/03/12 02:10:36;;;;;;;5.83;1.20;;;;;;;1.78;83.24;100539.41;5033473;28;20443;-68
2023/03/12 02:13:03;;;;;;;6.20;1.70;;;;;;;1.72;83.01;100545.69;5033069;28;20845;-67
2023/03/12 02:15:29;;;;;;;4.60;0.90;;;;;;;1.69;82.56;100543.53;5033050;28;20494;-68
2023/03/12 02:17:56;;;;;;;4.73;1.00;;;;;;;1.62;83.93;100543.69;5032775;28;20443;-67
2023/03/12 02:20:28;;;;;;;6.30;1.53;;;;;;;1.52;85.00;100554.19;5035724;28;20447;-67
2023/03/12 02:23:02;;;;;;;4.93;1.07;;;;;;;1.45;86.19;100549.00;5036879;28;20772;-69
2023/03/12 02:25:37;;;;;;;6.40;1.47;;;;;;;1.46;85.62;100555.97;5037120;28;20462;-69
2023/03/12 02:28:07;;;;;;;6.90;1.20;;;;;;;1.47;85.11;100557.59;5036991;28;20431;-69
2023/03/12 02:30:35;;;;;;;4.90;1.00;;;;;;;1.46;85.13;100555.97;5037339;28;20865;-69
2023/03/12 02:33:06;;;;;;;5.87;1.70;;;;;;;1.42;85.77;100564.72;5037064;28;20512;-66
2023/03/12 02:35:33;;;;;;;4.50;1.00;;;;;;;1.35;86.77;100556.84;5037012;28;21057;-67
2023/03/12 02:37:59;;;;;;;5.33;1.07;;;;;;;1.32;86.60;100561.84;5036897;28;20479;-68
2023/03/12 02:40:31;;;;;;;5.00;1.10;;;;;;;1.30;85.91;100566.63;5037048;28;20542;-68
2023/03/12 02:43:00;;;;;;;5.50;1.23;;;;;;;1.24;86.35;100581.75;5037089;28;20420;-67
2023/03/12 02:45:28;;;;;;;8.80;1.57;;;;;;;1.22;86.16;100573.97;5036931;28;20470;-68
2023/03/12 02:47:55;;;;;;;5.57;1.27;;;;;;;1.17;86.82;100578.41;5037277;28;20454;-68
2023/03/12 02:50:22;;;;;;;9.63;1.80;;;;;;;1.17;87.46;100581.88;5036795;28;20966;-68
2023/03/12 02:52:48;;;;;;;6.10;1.33;;;;;;;1.08;88.91;100577.16;5036697;28;20479;-68
2023/03/12 02:55:15;;;;;;;9.40;2.10;;;;;;;1.07;88.06;100584.38;5036918;28;20562;-68
2023/03/12 02:57:42;;;;;;;6.00;1.60;;;;;;;1.07;87.79;100581.69;5036841;28;20484;-68
2023/03/12 03:00:13;;;;;;;6.17;1.80;;;;;;;1.03;87.61;100579.75;5036868;28;20475;-68
2023/03/12 03:02:39;;;;;;;6.30;1.60;;;;;;;1.00;88.68;100586.34;5036809;28;20455;-68
2023/03/12 03:05:07;;;;;;;13.00;1.80;;;;;;;1.00;88.21;100583.69;5036258;28;20502;-67
2023/03/12 03:07:34;;;;;;;5.87;1.50;;;;;;;0.93;89.62;100588.34;5036452;28;20437;-68
2023/03/12 03:10:03;;;;;;;10.10;1.53;;;;;;;0.90;89.67;100584.31;5036519;28;20442;-67
2023/03/12 03:12:29;;;;;;;7.33;1.30;;;;;;;0.90;89.22;100588.81;5036298;28;20486;-68
2023/03/12 03:14:56;;;;;;;5.77;1.73;;;;;;;0.88;89.15;100586.38;5036159;28;20558;-68
2023/03/12 03:17:25;;;;;;;5.20;1.53;;;;;;;0.80;89.65;100588.59;5035853;28;20442;-68
2023/03/12 03:19:52;;;;;;;6.87;2.20;;;;;;;0.76;90.63;100598.94;5036074;28;20443;-68
2023/03/12 03:22:20;;;;;;;10.83;1.73;;;;;;;0.78;90.37;100601.38;5035660;28;21008;-68
2023/03/12 03:24:46;;;;;;;8.90;1.37;;;;;;;0.80;90.15;100599.28;5035602;28;21004;-69
2023/03/12 03:27:14;;;;;;;7.73;1.77;;;;;;;0.78;90.21;100612.03;5036169;28;20454;-67
2023/03/12 03:29:41;;;;;;;7.47;1.43;;;;;;;0.75;90.47;100616.81;5035934;28;20443;-68
2023/03/12 03:32:07;;;;;;;5.60;1.53;;;;;;;0.75;90.68;100619.47;5035390;28;20457;-68
2023/03/12 03:34:35;;;;;;;5.77;1.57;;;;;;;0.68;92.07;100615.31;5035793;28;20478;-68
2023/03/12 03:37:02;;;;;;;6.77;1.77;;;;;;;0.63;92.03;100616.00;5035623;28;20975;-67
2023/03/12 03:39:29;;;;;;;5.33;1.50;;;;;;;0.59;92.41;100606.84;5035500;28;20447;-67
2023/03/12 03:41:55;;;;;;;7.33;1.70;;;;;;;0.56;92.71;100609.97;5035337;28;20850;-65
2023/03/12 03:44:22;;;;;;;5.77;1.60;;;;;;;0.61;92.31;100617.28;5035557;28;20431;-64
2023/03/12 03:46:49;;;;;;;6.03;1.87;;;;;;;0.58;92.68;100615.91;5035549;28;20471;-69
2023/03/12 03:49:16;;;;;;;5.43;1.27;;;;;;;0.59;92.77;100612.19;5035576;28;20538;-68
2023/03/12 03:51:44;;;;;;;5.37;1.30;;;;;;;0.58;92.79;100618.56;5040862;28;20457;-69
2023/03/12 03:54:11;;;;;;;8.47;1.93;;;;;;;0.60;92.70;100619.13;5038077;28;20482;-69
2023/03/12 03:56:38;;;;;;;6.20;1.97;;;;;;;0.65;92.40;100634.41;5037113;28;20546;-69
2023/03/12 03:59:04;;;;;;;8.30;2.13;;;;;;;0.63;92.23;100625.88;5036750;28;20447;-70
2023/03/12 04:01:31;;;;;;;5.07;1.30;;;;;;;0.58;92.09;100631.91;5036463;28;20486;-70
2023/03/12 04:03:58;;;;;;;7.97;1.80;;;;;;;0.52;94.03;100638.13;5035927;28;20543;-69
2023/03/12 04:06:24;;;;;;;8.60;1.80;;;;;;;0.50;93.72;100642.91;5035319;28;21023;-69
2023/03/12 04:08:52;;;;;;;5.73;1.53;;;;;;;0.48;94.19;100639.66;5035993;28;20534;-70
2023/03/12 04:11:21;;;;;;;6.50;1.70;;;;;;;0.52;93.63;100640.00;5038238;28;20467;-70
2023/03/12 04:13:48;;;;;;;6.60;1.90;;;;;;;0.57;93.74;100640.09;5037746;28;20852;-71
2023/03/12 04:16:15;;;;;;;6.17;2.13;;;;;;;0.56;94.32;100647.28;5038017;28;20495;-70
2023/03/12 04:18:42;;;;;;;5.17;1.60;;;;;;;0.55;94.04;100637.69;5037226;28;20439;-70
2023/03/12 04:21:11;;;;;;;9.13;2.40;;;;;;;0.57;94.16;100638.25;5036641;28;20534;-70
2023/03/12 04:23:39;;;;;;;7.63;1.93;;;;;;;0.61;93.79;100650.06;5036955;28;20460;-70
2023/03/12 04:26:07;;;;;;;8.73;2.20;;;;;;;0.62;93.20;100641.03;5036806;28;20517;-70
2023/03/12 04:28:34;;;;;;;6.67;2.23;;;;;;;0.53;93.76;100650.41;5035437;28;20506;-70
2023/03/12 04:31:03;;;;;;;6.20;2.47;;;;;;;0.57;94.28;100648.09;5037917;28;20615;-70
2023/03/12 04:33:32;;;;;;;6.60;2.03;;;;;;;0.49;95.94;100651.94;5038870;28;20547;-70
2023/03/12 04:35:59;;;;;;;10.13;2.23;;;;;;;0.48;96.44;100651.13;5037905;28;21055;-69
2023/03/12 04:38:27;;;;;;;7.80;1.93;;;;;;;0.53;95.82;100655.75;5037887;28;20539;-69
2023/03/12 04:41:00;;;;;;;7.53;3.00;;;;;;;0.49;95.64;100654.63;5037780;28;20469;-69
2023/03/12 04:43:29;;;;;;;7.40;2.03;;;;;;;0.47;95.98;100654.81;5036017;28;20925;-70
2023/03/12 04:45:56;;;;;;;7.33;2.30;;;;;;;0.44;96.27;100649.97;5037073;28;20473;-69
2023/03/12 04:48:23;;;;;;;10.17;1.70;;;;;;;0.43;96.78;100648.34;5036390;28;20503;-69
2023/03/12 04:50:50;;;;;;;8.30;3.10;;;;;;;0.37;96.89;100653.78;5037533;28;20486;-69
2023/03/12 04:53:17;;;;;;;7.73;2.23;;;;;;;0.46;95.93;100652.41;5035968;28;20479;-69
2023/03/12 04:55:43;;;;;;;8.50;2.00;;;;;;;0.48;95.79;100656.44;5035943;28;20980;-70
2023/03/12 04:58:10;;;;;;;10.77;2.20;;;;;;;0.44;96.38;100657.13;5034903;28;20428;-70
2023/03/12 05:00:39;;;;;;;9.97;2.33;;;;;;;0.46;96.08;100655.06;5035958;28;20821;-70
2023/03/12 05:03:06;;;;;;;8.83;2.10;;;;;;;0.42;96.01;100660.03;5036730;28;20462;-70
2023/03/12 05:05:34;;;;;;;6.93;2.00;;;;;;;0.38;95.71;100660.75;5035731;28;20552;-69
2023/03/12 05:08:01;;;;;;;6.40;1.93;;;;;;;0.35;95.90;100666.53;5034774;28;20545;-69
2023/03/12 05:10:28;;;;;;;7.37;1.80;;;;;;;0.44;95.28;100665.13;5035660;28;20455;-70
2023/03/12 05:12:54;;;;;;;15.77;2.93;;;;;;;0.39;95.14;100667.69;5034372;28;20470;-69
2023/03/12 05:15:21;;;;;;;5.53;1.90;;;;;;;0.41;95.63;100668.28;5034867;28;20890;-70
2023/03/12 05:17:49;;;;;;;6.67;2.03;;;;;;;0.41;95.69;100668.28;5034739;28;20442;-70
2023/03/12 05:20:16;;;;;;;5.87;1.90;;;;;;;0.37;96.04;100665.25;5035442;28;20831;-70
2023/03/12 05:22:43;;;;;;;5.10;1.60;;;;;;;0.35;96.13;100661.19;5035521;28;20447;-70
2023/03/12 05:25:11;;;;;;;12.37;1.87;;;;;;;0.31;95.62;100660.88;5036555;28;20502;-70
2023/03/12 05:27:38;;;;;;;6.60;1.80;;;;;;;0.28;94.88;100661.31;5035655;28;20535;-71
2023/03/12 05:30:06;;;;;;;6.60;2.20;;;;;;;0.29;95.20;100664.78;5036392;28;20513;-69
2023/03/12 05:32:33;;;;;;;6.43;2.07;;;;;;;0.25;95.31;100675.09;5040367;28;20501;-69
2023/03/12 05:35:01;;;;;;;7.70;1.90;;;;;;;0.25;95.05;100665.25;5035787;28;20491;-69
2023/03/12 05:37:28;;;;;;;8.07;2.27;;;;;;;0.22;95.80;100667.56;5035800;28;20447;-69
2023/03/12 05:39:54;;;;;;;9.00;1.77;;;;;;;0.24;96.46;100668.16;5035538;28;20885;-69
2023/03/12 05:42:21;;;;;;;6.70;1.43;;;;;;;0.26;95.75;100666.06;5035762;28;20455;-68
2023/03/12 05:44:48;;;;;;;6.23;1.83;;;;;;;0.23;95.69;100656.69;5034502;28;20445;-69
2023/03/12 05:47:14;;;;;;;8.43;1.87;;;;;;;0.21;96.15;100649.97;5034287;28;20451;-69
2023/03/12 05:49:41;;;;;;;7.50;1.63;;;;;;;0.20;96.48;100670.47;5034711;28;20439;-68
2023/03/12 05:52:09;;;;;;;5.90;2.20;;;;;;;0.17;97.11;100665.59;5034224;28;20498;-69
2023/03/12 05:54:36;;;;;;;6.10;1.90;;;;;;;0.22;96.94;100663.06;5035261;28;20594;-69
2023/03/12 05:57:03;;;;;;;7.10;2.23;;;;;;;0.19;96.91;100668.84;5036329;28;20535;-69
2023/03/12 05:59:29;;;;;;;6.70;1.40;;;;;;;0.25;96.80;100661.78;5035984;28;20447;-69
2023/03/12 06:01:57;;;;;;;6.90;1.80;;;;;;;0.27;97.05;100662.38;5035592;28;20481;-69
2023/03/12 06:04:23;;;;;;;7.17;2.10;;;;;;;0.27;96.73;100666.84;5034557;28;20447;-69
2023/03/12 06:06:50;;;;;;;7.10;1.73;;;;;;;0.27;96.64;100667.69;5035548;28;20513;-69
2023/03/12 06:09:18;;;;;;;6.67;1.63;;;;;;;0.25;96.85;100667.91;5034916;28;20427;-69
2023/03/12 06:11:44;;;;;;;6.30;2.07;;;;;;;0.22;97.67;100667.56;5034007;28;20486;-68
2023/03/12 06:14:11;;;;;;;5.60;1.70;;;;;;;0.26;97.38;100668.72;5033531;28;20576;-69
2023/03/12 06:16:38;;;;;;;11.03;2.43;;;;;;;0.28;96.81;100668.50;5033557;28;20594;-67
2023/03/12 06:19:06;;;;;;;7.33;2.20;;;;;;;0.28;96.95;100671.16;5033895;28;20462;-69
2023/03/12 06:21:34;;;;;;;6.47;2.37;;;;;;;0.28;97.00;100665.84;5035092;28;20818;-69
2023/03/12 06:24:02;;;;;;;5.80;1.50;;;;;;;0.33;96.63;100668.63;5035629;28;20455;-68
2023/03/12 06:26:30;;;;;;;11.43;1.67;;;;;;;0.35;95.79;100672.66;5036338;28;20874;-69
2023/03/12 06:28:57;;;;;;;7.73;1.80;;;;;;;0.39;96.00;100681.81;5035893;28;20953;-68
2023/03/12 06:31:24;;;;;;;5.60;1.50;;;;;;;0.39;95.50;100675.69;5035840;28;20545;-68
2023/03/12 06:33:52;;;;;;;5.93;1.60;;;;;;;0.43;96.13;100684.84;5035639;28;20522;-69
2023/03/12 06:36:19;;;;;;;6.93;2.03;;;;;;;0.47;95.74;100680.66;5034755;28;20905;-69
2023/03/12 06:38:46;;;;;;;7.17;1.97;;;;;;;0.53;95.09;100684.25;5035059;28;20442;-70
2023/03/12 06:41:15;;;;;;;7.87;1.57;;;;;;;0.60;94.98;100690.28;5034274;28;20485;-69
2023/03/12 06:43:44;;;;;;;7.40;1.80;;;;;;;0.62;94.96;100678.34;5035547;28;20963;-69
2023/03/12 06:46:14;;;;;;;6.00;1.83;;;;;;;0.68;93.87;100695.25;5035729;28;20456;-69
2023/03/12 06:48:41;;;;;;;7.20;1.90;;;;;;;0.72;93.91;100697.22;5035139;28;20509;-69
2023/03/12 06:51:08;;;;;;;6.70;2.00;;;;;;;0.74;93.56;100692.47;5035876;28;20427;-69
2023/03/12 06:53:35;;;;;;;5.70;1.27;;;;;;;0.83;93.04;100694.78;5034670;28;20803;-69
2023/03/12 06:56:02;;;;;;;5.80;1.63;;;;;;;0.89;92.66;100686.69;5066038;22;20481;-66
2023/03/12 06:58:29;;;;;;;5.80;1.80;;;;;;;0.95;93.34;100692.91;5072530;28;20430;-67
2023/03/12 07:00:57;;;;;;;5.50;1.60;;;;;;;1.00;92.18;100693.03;5072166;28;20448;-65
2023/03/12 07:03:23;;;;;;;8.80;1.83;;;;;;;1.07;92.30;100704.38;5072157;28;20452;-64
2023/03/12 07:05:51;;;;;;;5.37;1.40;;;;;;;1.11;93.35;100699.41;5073750;28;20508;-67
2023/03/12 07:08:18;;;;;;;8.43;2.17;;;;;;;1.19;93.41;100707.81;5075957;28;20443;-66
2023/03/12 07:10:45;;;;;;;5.13;1.43;;;;;;;1.25;92.21;100706.88;5075655;28;20449;-67
2023/03/12 07:13:12;;;;;;;8.83;1.70;;;;;;;1.23;91.64;100706.28;5075877;28;20473;-66
2023/03/12 07:15:38;;;;;;;5.50;1.63;;;;;;;1.29;91.67;100698.41;5075749;28;20480;-67
2023/03/12 07:18:08;;;;;;;6.37;1.93;;;;;;;1.35;90.79;100697.47;5075872;28;20528;-67
2023/03/12 07:20:37;;;;;;;9.70;2.00;;;;;;;1.34;90.06;100701.19;5075795;28;20541;-65
2023/03/12 07:23:04;;;;;;;6.57;1.90;;;;;;;1.36;90.50;100707.88;5075653;28;20472;-66
2023/03/12 07:25:30;;;;;;;6.07;1.50;;;;;;;1.40;90.62;100711.69;5075697;28;20451;-66
2023/03/12 07:27:57;;;;;;;7.60;2.20;;;;;;;1.48;90.08;100714.00;5075612;28;20453;-67
2023/03/12 07:30:24;;;;;;;10.60;2.23;;;;;;;1.49;89.58;100715.63;5075324;28;20456;-66
2023/03/12 07:32:50;;;;;;;6.17;1.90;;;;;;;1.54;89.34;100716.75;5075531;28;20445;-67
2023/03/12 07:35:18;;;;;;;6.73;1.77;;;;;;;1.56;88.36;100714.69;5075126;28;20484;-67
2023/03/12 07:37:45;;;;;;;6.57;2.47;;;;;;;1.55;88.50;100729.91;5075430;28;20461;-68
2023/03/12 07:40:12;;;;;;;7.20;1.43;;;;;;;1.54;89.69;100728.25;5075413;28;20445;-67
2023/03/12 07:42:39;;;;;;;12.53;1.87;;;;;;;1.54;89.88;100722.09;5075390;28;20868;-67
2023/03/12 07:45:07;;;;;;;6.03;1.30;;;;;;;1.63;89.98;100716.13;5075398;28;20517;-68
2023/03/12 07:47:33;;;;;;;6.60;2.03;;;;;;;1.72;88.29;100717.38;5075249;28;20543;-67
2023/03/12 07:50:00;;;;;;;5.17;1.87;;;;;;;1.82;87.87;100726.66;5075248;28;20897;-67
2023/03/12 07:52:28;;;;;;;6.20;1.87;;;;;;;1.88;87.61;100723.00;5075273;28;20441;-67
2023/03/12 07:54:55;;;;;;;7.43;1.93;;;;;;;1.92;87.41;100716.16;5075021;28;20485;-68
2023/03/12 07:57:22;;;;;;;8.30;2.43;;;;;;;2.01;85.65;100723.53;5074900;28;20478;-67
2023/03/12 07:59:49;;;;;;;6.67;2.17;;;;;;;2.12;85.83;100724.50;5075193;28;20430;-68
2023/03/12 08:02:15;;;;;;;8.90;2.37;;;;;;;2.19;84.85;100732.38;5075099;28;20876;-67
2023/03/12 08:04:42;;;;;;;9.00;2.20;;;;;;;2.31;84.43;100738.47;5075237;28;20544;-67
2023/03/12 08:07:09;;;;;;;10.40;2.27;;;;;;;2.36;84.02;100735.06;5074791;28;20467;-67
2023/03/12 08:09:37;;;;;;;9.90;1.70;;;;;;;2.38;84.42;100735.59;5075178;28;20445;-67
2023/03/12 08:12:04;;;;;;;8.43;2.10;;;;;;;2.46;84.20;100736.03;5074840;28;20449;-67
2023/03/12 08:14:31;;;;;;;7.30;2.23;;;;;;;2.56;84.14;100737.22;5074708;28;20575;-73
2023/03/12 08:16:57;;;;;;;9.37;2.37;;;;;;;2.57;82.91;100737.00;5073446;28;20493;-72
2023/03/12 08:19:24;;;;;;;6.47;2.07;;;;;;;2.64;83.56;100742.97;5074749;28;20445;-67
2023/03/12 08:21:52;;;;;;;6.57;2.00;;;;;;;2.69;83.62;100735.03;5074660;28;20468;-68
2023/03/12 08:24:19;;;;;;;6.40;1.77;;;;;;;2.73;83.59;100736.16;5074528;28;20954;-68
2023/03/12 08:26:47;;;;;;;6.17;2.00;;;;;;;2.78;83.72;100738.09;5074469;28;20472;-68
2023/03/12 08:29:14;;;;;;;5.80;2.00;;;;;;;2.89;83.20;100736.41;5074524;28;20448;-69
2023/03/12 08:31:41;;;;;;;7.97;2.30;;;;;;;3.03;82.62;100740.34;5074123;28;20942;-68
2023/03/12 08:34:07;;;;;;;5.50;2.10;;;;;;;3.17;82.13;100736.22;5074289;28;20448;-69
2023/03/12 08:36:36;;;;;;;7.87;2.20;;;;;;;3.38;82.32;100733.81;5074239;28;20449;-69
2023/03/12 08:39:02;;;;;;;9.90;2.10;;;;;;;3.57;81.14;100740.47;5074321;28;20441;-69
2023/03/12 08:41:29;;;;;;;19.73;2.27;;;;;;;3.67;80.69;100729.84;5074433;28;20444;-68
2023/03/12 08:43:57;;;;;;;6.33;1.97;;;;;;;3.76;79.67;100733.72;5073810;28;20441;-68
2023/03/12 08:46:24;;;;;;;8.00;1.50;;;;;;;3.85;79.08;100730.56;5074102;28;20458;-68
2023/03/12 08:48:50;;;;;;;8.30;2.40;;;;;;;3.95;79.51;100730.69;5074073;28;20448;-69
2023/03/12 08:51:17;;;;;;;9.93;2.20;;;;;;;4.05;78.35;100720.88;5073743;28;20532;-69
2023/03/12 08:53:44;;;;;;;4.90;1.13;;;;;;;4.10;78.61;100728.16;5074018;28;20532;-69
2023/03/12 08:56:10;;;;;;;7.93;1.87;;;;;;;3.98;77.46;100727.50;5073880;28;20492;-68
2023/03/12 08:58:37;;;;;;;15.37;2.97;;;;;;;3.93;77.03;100719.41;5074000;28;20432;-69
2023/03/12 09:01:08;;;;;;;7.00;1.90;;;;;;;3.83;77.33;100717.44;5073891;28;20524;-70
2023/03/12 09:03:35;;;;;;;6.77;1.80;;;;;;;3.82;77.61;100728.41;5073911;28;20432;-72
2023/03/12 09:06:04;;;;;;;5.17;1.57;;;;;;;3.83;78.01;100727.34;5073426;28;21020;-71
2023/03/12 09:08:32;;;;;;;7.43;1.87;;;;;;;3.86;77.66;100726.84;5073329;28;20814;-69
2023/03/12 09:10:59;;;;;;;12.17;2.43;;;;;;;3.85;78.72;100723.38;5073710;28;20449;-69
2023/03/12 09:13:26;;;;;;;6.70;1.90;;;;;;;3.93;78.56;100716.72;5073372;28;20931;-69
2023/03/12 09:15:52;;;;;;;6.20;1.53;;;;;;;4.00;78.37;100714.66;5073500;28;20572;-70
2023/03/12 09:18:20;;;;;;;6.30;1.70;;;;;;;4.03;77.57;100716.84;5073645;28;20444;-68
2023/03/12 09:20:47;;;;;;;7.60;1.63;;;;;;;4.03;78.15;100711.47;5073502;28;20528;-68
2023/03/12 09:23:14;;;;;;;5.70;0.90;;;;;;;4.14;77.89;100713.19;5073493;28;20445;-68
2023/03/12 09:25:40;;;;;;;5.03;1.03;;;;;;;4.23;76.58;100714.31;5073425;28;20461;-69
2023/03/12 09:28:08;;;;;;;7.07;1.67;;;;;;;4.34;75.76;100711.72;5073112;28;20477;-68
2023/03/12 09:30:34;;;;;;;4.70;1.13;;;;;;;4.44;75.23;100711.81;5073420;28;20527;-68
2023/03/12 09:33:01;;;;;;;7.47;1.53;;;;;;;4.54;73.15;100711.88;5073095;28;20536;-68
2023/03/12 09:35:30;;;;;;;6.10;1.03;;;;;;;4.58;73.79;100718.34;5073080;28;20580;-71
2023/03/12 09:37:57;;;;;;;10.63;1.17;;;;;;;4.58;71.77;100710.31;5073173;28;20495;-68
2023/03/12 09:40:27;;;;;;;9.73;1.20;;;;;;;4.69;69.64;100716.53;5073252;28;20441;-68
2023/03/12 09:42:58;;;;;;;4.53;0.87;;;;;;;4.73;69.93;100715.75;5073355;28;20425;-68
2023/03/12 09:45:27;;;;;;;5.60;1.33;;;;;;;4.81;70.83;100711.78;5073285;28;20799;-68
2023/03/12 09:47:57;;;;;;;4.83;0.83;;;;;;;4.79;72.48;100713.94;5072858;28;20540;-68
2023/03/12 09:50:29;;;;;;;4.60;0.90;;;;;;;4.81;73.79;100709.09;5073485;28;20461;-68
2023/03/12 09:53:00;;;;;;;6.10;1.10;;;;;;;4.96;72.33;100700.34;5072892;28;20418;-69
2023/03/12 09:55:32;;;;;;;7.03;1.00;;;;;;;5.24;71.47;100699.94;5072736;28;20485;-65
2023/03/12 09:57:59;;;;;;;5.27;1.33;;;;;;;5.37;70.79;100703.19;5072798;28;20469;-66
2023/03/12 10:00:31;;;;;;;5.30;0.93;;;;;;;5.49;68.13;100696.53;5073109;28;20441;-68
2023/03/12 10:03:34;;;;;;;17.07;1.40;;;;;;;5.62;68.80;100699.75;5073038;28;20444;-66
2023/03/12 10:06:10;;;;;;;5.70;1.00;;;;;;;5.79;67.88;100701.16;5041138;28;20479;-68
2023/03/12 10:08:52;;;;;;;5.47;1.30;;;;;;;5.90;66.97;100695.81;5072924;28;20899;-67
2023/03/12 10:11:35;;;;;;;7.27;1.30;;;;;;;6.02;66.77;100702.59;5072720;28;20500;-68
2023/03/12 10:14:26;;;;;;;5.40;1.10;;;;;;;6.09;66.10;100696.13;5072666;28;20491;-68
2023/03/12 10:17:04;;;;;;;5.37;0.80;;;;;;;6.30;65.19;100701.22;5072880;28;20465;-69
2023/03/12 10:19:43;;;;;;;5.80;1.30;;;;;;;6.41;64.48;100690.47;5072930;28;20429;-69
2023/03/12 10:22:26;;;;;;;11.30;1.43;;;;;;;6.56;65.50;100693.16;5072894;28;20800;-68
2023/03/12 10:25:07;;;;;;;4.60;0.87;;;;;;;6.62;64.62;100677.78;5072886;28;20456;-69
2023/03/12 10:27:35;;;;;;;4.87;0.87;;;;;;;6.59;61.36;100681.81;5072858;28;20472;-68
2023/03/12 10:30:05;;;;;;;6.27;1.13;;;;;;;6.57;63.10;100675.91;5072867;28;20444;-68
2023/03/12 10:32:40;;;;;;;4.67;0.70;;;;;;;6.67;61.53;100673.19;5073089;28;20438;-69
2023/03/12 10:35:15;;;;;;;4.67;0.80;;;;;;;6.72;58.94;100680.47;5072694;28;20467;-68
2023/03/12 10:37:44;;;;;;;4.57;0.67;;;;;;;6.73;59.75;100677.50;5072255;28;20522;-69
2023/03/12 10:40:16;;;;;;;8.53;0.90;;;;;;;6.72;59.76;100678.56;5073213;28;20480;-69
2023/03/12 10:42:43;;;;;;;5.80;1.07;;;;;;;6.82;59.48;100659.72;5076518;28;20465;-70
2023/03/12 10:45:22;;;;;;;5.43;1.20;;;;;;;6.87;59.30;100663.47;5076494;28;20540;-68
2023/03/12 10:47:51;;;;;;;4.90;0.80;;;;;;;6.77;58.31;100664.28;5076000;28;20544;-68
2023/03/12 10:50:20;;;;;;;11.23;1.17;;;;;;;6.70;58.62;100651.13;5076709;28;20441;-68
2023/03/12 10:52:49;;;;;;;4.97;1.00;;;;;;;6.80;59.55;100650.28;5076097;28;21053;-69
2023/03/12 10:55:25;;;;;;;5.57;1.27;;;;;;;6.96;58.55;100642.97;5076318;28;20484;-69
2023/03/12 10:57:52;;;;;;;5.33;1.07;;;;;;;7.23;57.95;100639.91;5075747;28;20493;-68
2023/03/12 11:00:21;;;;;;;4.50;0.70;;;;;;;7.27;58.17;100649.84;5075726;28;20516;-68
2023/03/12 11:02:57;;;;;;;4.90;0.90;;;;;;;7.32;57.74;100641.72;5075688;28;20480;-70
2023/03/12 11:05:26;;;;;;;7.53;1.10;;;;;;;7.45;58.37;100639.50;5075914;28;20421;-69
2023/03/12 11:07:53;;;;;;;4.60;0.93;;;;;;;7.36;58.80;100636.59;5075973;28;20556;-70
2023/03/12 11:10:24;;;;;;;6.20;1.43;;;;;;;7.54;58.81;100627.06;5075823;28;20449;-73
2023/03/12 11:12:54;;;;;;;5.57;1.20;;;;;;;7.77;57.96;100637.13;5076020;28;20524;-73
2023/03/12 11:15:24;;;;;;;6.70;1.57;;;;;;;7.76;56.07;100630.13;5075622;28;20992;-75
2023/03/12 11:17:51;;;;;;;5.93;1.23;;;;;;;7.61;54.11;100635.59;5075550;28;20461;-70
2023/03/12 11:20:29;;;;;;;5.43;1.37;;;;;;;7.52;54.16;100630.00;5075626;28;20532;-70
2023/03/12 11:22:55;;;;;;;5.30;1.20;;;;;;;7.58;54.64;100620.03;5075769;28;20471;-71
2023/03/12 11:25:26;;;;;;;5.80;0.93;;;;;;;7.67;55.31;100621.03;5075869;28;20441;-73
2023/03/12 11:27:55;;;;;;;5.30;1.40;;;;;;;7.84;53.89;100626.03;5075704;28;20461;-71
2023/03/12 11:30:29;;;;;;;5.27;1.30;;;;;;;7.78;54.42;100624.44;5075891;28;20441;-71
2023/03/12 11:32:56;;;;;;;6.57;1.47;;;;;;;7.86;53.80;100613.06;5075744;28;20418;-71
2023/03/12 11:35:35;;;;;;;4.90;1.10;;;;;;;7.97;54.06;100602.97;5075016;28;21012;-71
2023/03/12 11:38:08;;;;;;;6.60;1.53;;;;;;;8.09;52.84;100604.22;5075182;28;20461;-69